• Join FlightAware (Why Join?)
  • Login
  • US Flag 
11:11AM EDT


 

Airport Tracker/Info


-or-


 

Live Flight TrackerFlight Track Log ✈ FIV606 ✈ 11-May-2013 ✈ KSUS - KOKV

Flight Track Log - Related Links

Times and Time Zones

All times are in EDT time to prevent confusion due to time zone crossing. See the FIV606 flight status page for this flight to view local times or setup timezone preferences in your user account.

Time Position Orientation Groundspeed Altitude Reporting Facility
EDT Latitude Longitude Course Direction KTS MPH feet Rate Location/Type
04:01PM 38.6333 -90.7000 109° East 222 255 3,800  Level Gateway (St. Louis) TRACON
04:02PM 38.5978 -90.6747 151° Southeast 250 288 5,400 3,480 Climbing Kansas City Center
04:03PM 38.5753 -90.5750 106° East 281 323 9,600 3,900 Climbing Kansas City Center
04:04PM 38.5636 -90.4533 97° East 324 373 13,400 2,580 Climbing Kansas City Center
04:05PM 38.5483 -90.3103 98° East 393 452 15,000 1,800 Climbing Kansas City Center
04:06PM 38.6139 -89.8949 109° East  Level FlightAware Approximate
04:06PM 38.5300 -90.1439 98° East 414 476 17,100  Level Kansas City Center
04:07PM 38.5139 -89.9956 98° East 423 487 20,400 3,000 Climbing Kansas City Center
04:08PM 38.4969 -89.8450 98° East 429 494 23,300 2,520 Climbing Kansas City Center
04:09PM 38.4789 -89.6769 98° East 447 514 25,600 2,280 Climbing Kansas City Center
04:10PM 38.4592 -89.5019 98° East 463 533 28,000 2,340 Climbing Kansas City Center
04:11PM 38.4400 -89.3381 98° East 467 537 30,400 2,340 Climbing Kansas City Center
04:12PM 38.4211 -89.1803 99° East 455 524 32,900 2,280 Climbing Kansas City Center
04:13PM 38.3719 -89.0211 111° Southeast 448 516 35,200 1,980 Climbing Kansas City Center
04:14PM 38.3222 -88.8856 115° Southeast 438 504 37,000 840 Climbing Kansas City Center
04:15PM 38.2717 -88.7386 114° Southeast 449 517 37,000 480 Level Kansas City Center
04:16PM 38.2114 -88.5697 114° Southeast 479 551 38,100 1,260 Climbing Kansas City Center
04:17PM 38.1592 -88.4169 113° Southeast 475 547 39,600 1,200 Climbing Kansas City Center
04:18PM 38.1072 -88.2669 114° Southeast 466 536 40,600 660 Climbing Kansas City Center
04:19PM 38.0581 -88.1136 112° Southeast 468 539 41,000 180 Climbing Kansas City Center
04:20PM 38.0089 -87.9569 112° Southeast 474 545 41,000  Level Kansas City Center
04:21PM 37.9647 -87.8264 113° Southeast 498 573 41,000  Level Indianapolis Center
04:22PM 37.9108 -87.6650 113° Southeast 499 574 41,000  Level Indianapolis Center
04:23PM 37.8456 -87.4692 113° Southeast 505 581 41,000  Level Indianapolis Center
04:24PM 37.8356 -87.2911 94° East 520 598 41,000  Level Indianapolis Center
04:25PM 37.8683 -87.1131 77° East 522 601 41,000  Level Indianapolis Center
04:26PM 37.9003 -86.9344 77° East 525 604 41,000  Level Indianapolis Center
04:27PM 37.9333 -86.7567 77° East 524 603 41,000  Level Indianapolis Center
04:28PM 37.9656 -86.5758 77° East 527 606 41,000  Level Indianapolis Center
04:29PM 37.9967 -86.3972 77° East 522 601 41,000  Level Indianapolis Center
04:30PM 38.0289 -86.2175 77° East 524 603 41,000  Level Indianapolis Center
04:31PM 38.0661 -86.0022 78° East 522 601 41,000  Level Indianapolis Center
04:32PM 38.0978 -85.8228 77° East 522 601 41,000  Level Indianapolis Center
04:33PM 38.1292 -85.6422 77° East 523 602 41,000  Level Indianapolis Center
04:34PM 38.1597 -85.4619 78° East 523 602 41,000  Level Indianapolis Center
04:35PM 38.1900 -85.2825 78° East 520 598 41,000  Level Indianapolis Center
04:36PM 38.2192 -85.1003 78° East 521 600 41,000  Level Indianapolis Center
04:37PM 38.2486 -84.9200 78° East 520 598 41,000  Level Indianapolis Center
04:38PM 38.2792 -84.7403 78° East 518 596 41,000  Level Indianapolis Center
04:39PM 38.3061 -84.5586 79° East 522 601 41,000  Level Indianapolis Center
04:40PM 38.3358 -84.3772 78° East 522 601 41,000  Level Indianapolis Center
04:41PM 38.3692 -84.1653 79° East 523 602 41,000  Level Indianapolis Center
04:42PM 38.3969 -83.9853 79° East 520 598 41,000  Level Indianapolis Center
04:43PM 38.4242 -83.8047 79° East 516 594 41,000  Level Indianapolis Center
04:44PM 38.4517 -83.6236 79° East 518 596 41,000  Level Indianapolis Center
04:45PM 38.4786 -83.4433 79° East 516 594 41,000  Level Indianapolis Center
04:46PM 38.5061 -83.2617 79° East 519 597 41,000  Level Indianapolis Center
04:47PM 38.5325 -83.0789 79° East 521 600 41,000 -180 Level Indianapolis Center
04:48PM 38.5553 -82.8969 81° East 518 596 40,700 -900 Descending Indianapolis Center
04:49PM 38.5553 -82.7086 90° East 527 606 39,200 -1,500 Descending Indianapolis Center
04:51PM 38.5572 -82.5181 89° East 532 612 37,700 -1,680 Descending Indianapolis Center
04:52PM 38.5597 -82.2981 89° East 543 625 35,900 -1,620 Descending Indianapolis Center
04:53PM 38.5628 -82.1017 89° East 551 634 34,400 -1,440 Descending Indianapolis Center
04:54PM 38.5672 -81.9047 88° East 556 640 33,000 -1,440 Descending Indianapolis Center
04:55PM 38.5739 -81.7128 87° East 550 633 31,500 -1,500 Descending Indianapolis Center
04:56PM 38.5953 -81.5319 81° East 531 611 30,000 -1,440 Descending Indianapolis Center
04:57PM 38.6286 -81.3592 76° East 516 594 28,600 -1,620 Descending Indianapolis Center
04:58PM 38.6642 -81.1517 78° East 504 580 26,800 -1,680 Descending Indianapolis Center
04:59PM 38.6928 -80.9814 78° East 493 567 25,200 -900 Descending Indianapolis Center
05:00PM 38.7206 -80.8217 77° East 466 536 25,000 -120 Descending Indianapolis Center
05:01PM 38.7486 -80.6572 78° East 470 541 25,000  Level Indianapolis Center
05:02PM 38.7756 -80.4906 78° East 477 549 25,000 -540 Level Indianapolis Center
05:03PM 38.8031 -80.3239 78° East 479 551 24,000 -1,260 Descending Indianapolis Center
05:04PM 38.8322 -80.1617 77° East 468 539 22,500 -1,080 Descending Indianapolis Center
05:05PM 38.8592 -80.0119 77° East 452 520 22,000 -300 Descending Washington Center
05:06PM 38.8814 -79.8586 79° East 459 528 22,000  Level Washington Center
05:07PM 38.9078 -79.7025 78° East 464 534 22,000  Level Washington Center
05:08PM 38.9339 -79.5439 78° East 459 528 22,000  Level Washington Center
05:09PM 38.9597 -79.3878 78° East 459 528 22,000 -960 Level Washington Center
05:10PM 38.9856 -79.2289 78° East 454 522 20,200 -2,220 Descending Washington Center
05:11PM 39.0047 -79.0750 81° East 443 510 17,700 -2,400 Descending Washington Center
05:12PM 39.0278 -78.9289 78° East 436 502 15,300 -2,220 Descending Washington Center
05:13PM 39.0508 -78.7669 80° East 421 484 13,300 -2,400 Descending Washington Center
05:14PM 39.0658 -78.6689 79° East 375 432 10,700 -2,400 Descending Washington Center
05:15PM 39.0833 -78.5572 79° East 341 392 8,600 -1,980 Descending Washington Center
05:16PM 39.0983 -78.4481 80° East 320 368 6,700 -1,800 Descending Washington Center
05:17PM 39.1136 -78.3283 81° East 304 350 5,100 -900 Descending Washington Center
05:18PM 39.1264 -78.2217 81° East 304 350 5,000 -60 Descending Washington Center
05:19PM 39.1392 -78.1153 81° East 304 350 5,000  Level Washington Center
05:20PM 39.1492 -78.0300 81° East 304 350 5,000  Level Washington Center
05:21PM 39.1492 -78.0300 180° South 304 350 5,000  Level Washington Center
05:22PM 39.1492 -78.0300 180° South 304 350 5,000  Level Washington Center
05:25PM 39.1333 -78.1333 270° West  Level FlightAware Approximate
05:32PM 39.1435 -78.1444 270° West  Level Estimated
05:33PM 39.1435 -78.1444 270° West  Level Estimated
05:34PM 39.1435 -78.1444 270° West  Level Estimated
05:35PM 39.1435 -78.1444 270° West  Level Estimated
05:36PM 39.1435 -78.1444 270° West  Level Estimated
05:37PM 39.1435 -78.1444 270° West  Level Estimated